Observation data for White River Lake on 08/14/2019      Previous  Date  Next       Current Mesonet Observations  Soil Data  Daily Summary Page  Observations in Plain Language
KWVS 140500Z 04006KT 27/17 A301 RMK A01 T02660172  RH  059%=      5-min Rain = 0
KWVS 140505Z 04007KT 27/17 A3009 RMK A01 T02650172  RH  059%=      5-min Rain = 0
KWVS 140510Z 04007KT 27/17 A3009 RMK A01 T02650172  RH  060%=      5-min Rain = 0
KWVS 140515Z 04007KT 26/17 A3009 RMK A01 T02640172  RH  060%=      5-min Rain = 0
KWVS 140520Z 04007KT 26/17 A3009 RMK A01 T02630172  RH  060%=      5-min Rain = 0
KWVS 140525Z 04007KT 26/17 A3009 RMK A01 T02620172  RH  061%=      5-min Rain = 0
KWVS 140530Z 03008KT 26/17 A3008 RMK A01 T02620172  RH  061%=      5-min Rain = 0
KWVS 140535Z 04008KT 26/17 A3008 RMK A01 T02610173  RH  061%=      5-min Rain = 0
KWVS 140540Z 05007KT 26/17 A3009 RMK A01 T02610173  RH  061%=      5-min Rain = 0
KWVS 140545Z 05008KT 26/17 A3009 RMK A01 T02610173  RH  061%=      5-min Rain = 0
KWVS 140550Z 04008KT 26/17 A3009 RMK A01 T02600173  RH  062%=      5-min Rain = 0
KWVS 140555Z 03008KT 26/17 A3009 RMK A01 T02580173  RH  063%=      5-min Rain = 0
KWVS 140600Z 04008KT 26/17 A3009 RMK A01 T02570174  RH  063%=      5-min Rain = 0
KWVS 140605Z 05008KT 26/17 A301 RMK A01 T02570174  RH  063%=      5-min Rain = 0
KWVS 140610Z 04008KT 26/17 A3009 RMK A01 T02580174  RH  063%=      5-min Rain = 0
KWVS 140615Z 04008KT 26/17 A3009 RMK A01 T02570174  RH  064%=      5-min Rain = 0
KWVS 140620Z 04009KT 26/18 A3009 RMK A01 T02560175  RH  064%=      5-min Rain = 0
KWVS 140625Z 04008KT 26/17 A301 RMK A01 T02560174  RH  064%=      5-min Rain = 0
KWVS 140630Z 05009KT 26/18 A301 RMK A01 T02570175  RH  064%=      5-min Rain = 0
KWVS 140635Z 05008KT 26/18 A301 RMK A01 T02570175  RH  064%=      5-min Rain = 0
KWVS 140640Z 05009KT 26/18 A301 RMK A01 T02560175  RH  064%=      5-min Rain = 0
KWVS 140645Z 04009KT 26/18 A3011 RMK A01 T02560175  RH  064%=      5-min Rain = 0
KWVS 140650Z 04008KT 25/18 A3011 RMK A01 T02540175  RH  065%=      5-min Rain = 0
KWVS 140655Z 04009KT 26/18 A3011 RMK A01 T02550175  RH  065%=      5-min Rain = 0
KWVS 140700Z 04010KT 25/18 A3011 RMK A01 T02540175  RH  065%=      5-min Rain = 0
KWVS 140705Z 03010KT 26/18 A3012 RMK A01 T02550176  RH  065%=      5-min Rain = 0
KWVS 140710Z 03010KT 25/18 A3012 RMK A01 T02540176  RH  065%=      5-min Rain = 0
KWVS 140715Z 03011KT 25/18 A3011 RMK A01 T02540176  RH  065%=      5-min Rain = 0
KWVS 140720Z 03009KT 25/18 A3011 RMK A01 T02540176  RH  065%=      5-min Rain = 0
KWVS 140725Z 04008KT 25/18 A3011 RMK A01 T02520176  RH  066%=      5-min Rain = 0
KWVS 140730Z 04009KT 25/18 A3011 RMK A01 T02520176  RH  066%=      5-min Rain = 0
KWVS 140735Z 04008KT 25/18 A3011 RMK A01 T02510176  RH  066%=      5-min Rain = 0
KWVS 140740Z 04009KT 25/18 A3011 RMK A01 T02490176  RH  067%=      5-min Rain = 0
KWVS 140745Z 04009KT 25/18 A3011 RMK A01 T02490176  RH  067%=      5-min Rain = 0
KWVS 140750Z 03009KT 25/18 A3011 RMK A01 T02480176  RH  067%=      5-min Rain = 0
KWVS 140755Z 03008G13KT 25/18 A3011 RMK A01 T02480176  RH  068%=      5-min Rain = 0
KWVS 140800Z 04008KT 25/18 A3011 RMK A01 T02470176  RH  068%=      5-min Rain = 0
KWVS 140805Z 05007KT 25/18 A3011 RMK A01 T02470176  RH  068%=      5-min Rain = 0
KWVS 140810Z 05008KT 25/18 A3011 RMK A01 T02470176  RH  068%=      5-min Rain = 0
KWVS 140815Z 04008KT 25/18 A3011 RMK A01 T02460176  RH  068%=      5-min Rain = 0
KWVS 140820Z 05007KT 24/18 A3011 RMK A01 T02440175  RH  069%=      5-min Rain = 0
KWVS 140825Z 05007KT 24/18 A301 RMK A01 T02440175  RH  069%=      5-min Rain = 0
KWVS 140830Z 04006KT 24/18 A301 RMK A01 T02420175  RH  069%=      5-min Rain = 0
KWVS 140835Z 04007KT 24/18 A301 RMK A01 T02410175  RH  070%=      5-min Rain = 0
KWVS 140840Z 05006KT 24/17 A301 RMK A01 T02400174  RH  070%=      5-min Rain = 0
KWVS 140845Z 04007KT 24/17 A301 RMK A01 T02390174  RH  070%=      5-min Rain = 0
KWVS 140850Z 04007KT 24/17 A301 RMK A01 T02380174  RH  071%=      5-min Rain = 0
KWVS 140855Z 04009KT 24/17 A301 RMK A01 T02380174  RH  071%=      5-min Rain = 0
KWVS 140900Z 03010KT 24/17 A301 RMK A01 T02380173  RH  071%=      5-min Rain = 0
KWVS 140905Z 03010KT 24/17 A301 RMK A01 T02390173  RH  070%=      5-min Rain = 0
KWVS 140910Z 03010KT 24/17 A3009 RMK A01 T02390173  RH  070%=      5-min Rain = 0
KWVS 140915Z 03010KT 24/17 A3009 RMK A01 T02400173  RH  070%=      5-min Rain = 0
KWVS 140920Z 03012KT 24/17 A3009 RMK A01 T02410173  RH  069%=      5-min Rain = 0
KWVS 140925Z 03010KT 24/17 A301 RMK A01 T02410173  RH  069%=      5-min Rain = 0
KWVS 140930Z 03010G15KT 24/17 A301 RMK A01 T02410174  RH  069%=      5-min Rain = 0
KWVS 140935Z 03009KT 24/17 A301 RMK A01 T02430174  RH  069%=      5-min Rain = 0
KWVS 140940Z 03010KT 24/17 A301 RMK A01 T02430173  RH  068%=      5-min Rain = 0
KWVS 140945Z 02010KT 24/17 A301 RMK A01 T02430173  RH  068%=      5-min Rain = 0
KWVS 140950Z 02010KT 24/17 A301 RMK A01 T02430173  RH  068%=      5-min Rain = 0
KWVS 140955Z 01010KT 24/17 A301 RMK A01 T02430173  RH  068%=      5-min Rain = 0
KWVS 141000Z 02011G16KT 24/17 A301 RMK A01 T02420173  RH  069%=      5-min Rain = 0
KWVS 141005Z 02014G20KT 24/17 A301 RMK A01 T02430171  RH  067%=      5-min Rain = 0
KWVS 141010Z 02015G21KT 24/17 A301 RMK A01 T02410168  RH  067%=      5-min Rain = 0
KWVS 141015Z 02014KT 24/17 A3011 RMK A01 T02380166  RH  067%=      5-min Rain = 0
KWVS 141020Z 02015G21KT 24/17 A3011 RMK A01 T02360166  RH  068%=      5-min Rain = 0
KWVS 141025Z 02019G26KT 23/17 A3012 RMK A01 T02340167  RH  070%=      5-min Rain = 0
KWVS 141030Z 02016G22KT 23/17 A3012 RMK A01 T02320169  RH  071%=      5-min Rain = 0
KWVS 141035Z 02018G26KT 23/17 A3012 RMK A01 T02300170  RH  072%=      5-min Rain = 0
KWVS 141040Z 01017G22KT 23/17 A3012 RMK A01 T02290171  RH  073%=      5-min Rain = 0
KWVS 141045Z 02017G25KT 23/17 A3012 RMK A01 T02270170  RH  073%=      5-min Rain = 0
KWVS 141050Z 02018G26KT 23/17 A3013 RMK A01 T02270169  RH  073%=      5-min Rain = 0
KWVS 141055Z 02018KT 23/17 A3013 RMK A01 T02250168  RH  074%=      5-min Rain = 0
KWVS 141100Z 02016G22KT 22/17 A3013 RMK A01 T02240167  RH  074%=      5-min Rain = 0
KWVS 141105Z 02016KT 22/17 A3013 RMK A01 T02230166  RH  074%=      5-min Rain = 0
KWVS 141110Z 02016KT 22/17 A3014 RMK A01 T02220165  RH  074%=      5-min Rain = 0
KWVS 141115Z 02016KT 22/16 A3014 RMK A01 T02210164  RH  074%=      5-min Rain = 0
KWVS 141120Z 02017G22KT 22/16 A3014 RMK A01 T02190163  RH  074%=      5-min Rain = 0
KWVS 141125Z 02018G24KT 22/16 A3014 RMK A01 T02180162  RH  074%=      5-min Rain = 0
KWVS 141130Z 02016G22KT 22/16 A3014 RMK A01 T02170161  RH  074%=      5-min Rain = 0
KWVS 141135Z 02019G24KT 22/16 A3014 RMK A01 T02150160  RH  074%=      5-min Rain = 0
KWVS 141140Z 02015G21KT 21/16 A3014 RMK A01 T02140160  RH  075%=      5-min Rain = 0
KWVS 141145Z 01017G22KT 21/16 A3014 RMK A01 T02130158  RH  074%=      5-min Rain = 0
KWVS 141150Z 01014KT 21/16 A3014 RMK A01 T02100156  RH  074%=      5-min Rain = 0
KWVS 141155Z 01013G18KT 21/16 A3014 RMK A01 T02090155  RH  075%=      5-min Rain = 0
KWVS 141200Z 01014KT 21/15 A3015 RMK A01 T02080153  RH  074%=      5-min Rain = 0
KWVS 141205Z 00015G20KT 21/15 A3015 RMK A01 T02070152  RH  074%=      5-min Rain = 0
KWVS 141210Z 01015G20KT 21/15 A3015 RMK A01 T02070151  RH  074%=      5-min Rain = 0
KWVS 141215Z 00016G21KT 21/15 A3015 RMK A01 T02060151  RH  074%=      5-min Rain = 0
KWVS 141220Z 01014G19KT 21/15 A3015 RMK A01 T02060151  RH  074%=      5-min Rain = 0
KWVS 141225Z 01014G19KT 21/15 A3016 RMK A01 T02060151  RH  074%=      5-min Rain = 0
KWVS 141230Z 00013KT 21/15 A3016 RMK A01 T02070151  RH  073%=      5-min Rain = 0
KWVS 141235Z 01011KT 21/15 A3016 RMK A01 T02070151  RH  073%=      5-min Rain = 0
KWVS 141240Z 01011KT 21/15 A3016 RMK A01 T02080152  RH  073%=      5-min Rain = 0
KWVS 141245Z 01011KT 21/15 A3017 RMK A01 T02100152  RH  073%=      5-min Rain = 0
KWVS 141250Z 00011KT 21/15 A3017 RMK A01 T02110152  RH  072%=      5-min Rain = 0
KWVS 141255Z 01010G15KT 21/15 A3017 RMK A01 T02120152  RH  072%=      5-min Rain = 0
KWVS 141300Z 36012KT 21/15 A3018 RMK A01 T02130152  RH  072%=      5-min Rain = 0
KWVS 141305Z 00011KT 21/15 A3018 RMK A01 T02130152  RH  071%=      5-min Rain = 0
KWVS 141310Z 01012G17KT 21/15 A3018 RMK A01 T02140152  RH  071%=      5-min Rain = 0
KWVS 141315Z 01011KT 21/15 A3018 RMK A01 T02140152  RH  071%=      5-min Rain = 0
KWVS 141320Z 01011KT 22/15 A3019 RMK A01 T02150152  RH  070%=      5-min Rain = 0
KWVS 141325Z 00012KT 22/15 A3018 RMK A01 T02180153  RH  070%=      5-min Rain = 0
KWVS 141330Z 00011KT 22/15 A3019 RMK A01 T02200154  RH  069%=      5-min Rain = 0
KWVS 141335Z 36013KT 23/16 A3019 RMK A01 T02260155  RH  067%=      5-min Rain = 0
KWVS 141340Z 00013G18KT 23/16 A3019 RMK A01 T02290156  RH  066%=      5-min Rain = 0
KWVS 141345Z 00013KT 23/16 A302 RMK A01 T02330156  RH  065%=      5-min Rain = 0
KWVS 141350Z 01012KT 24/16 A302 RMK A01 T02350157  RH  064%=      5-min Rain = 0
KWVS 141355Z 00011KT 24/16 A302 RMK A01 T02390158  RH  063%=      5-min Rain = 0
KWVS 141400Z 01012KT 24/16 A302 RMK A01 T02400159  RH  064%=      5-min Rain = 0
KWVS 141405Z 01012KT 24/16 A302 RMK A01 T02420161  RH  063%=      5-min Rain = 0
KWVS 141410Z 02012KT 25/16 A302 RMK A01 T02450163  RH  063%=      5-min Rain = 0
KWVS 141415Z 02012KT 25/17 A3021 RMK A01 T02470165  RH  063%=      5-min Rain = 0
KWVS 141420Z 02012KT 25/17 A3021 RMK A01 T02470167  RH  064%=      5-min Rain = 0
KWVS 141425Z 02012KT 25/17 A3021 RMK A01 T02500168  RH  064%=      5-min Rain = 0
KWVS 141430Z 02010KT 26/17 A3021 RMK A01 T02560170  RH  062%=      5-min Rain = 0
KWVS 141435Z 02011KT 26/17 A3021 RMK A01 T02590169  RH  061%=      5-min Rain = 0
KWVS 141440Z 02012KT 26/17 A3021 RMK A01 T02570169  RH  061%=      5-min Rain = 0
KWVS 141445Z 02011KT 26/17 A3021 RMK A01 T02590168  RH  060%=      5-min Rain = 0
KWVS 141450Z 02009G14KT 26/17 A302 RMK A01 T02630169  RH  059%=      5-min Rain = 0
KWVS 141455Z 02010KT 26/17 A302 RMK A01 T02640169  RH  059%=      5-min Rain = 0
KWVS 141500Z 02009KT 27/17 A302 RMK A01 T02670169  RH  058%=      5-min Rain = 0
KWVS 141505Z 03009KT 27/17 A302 RMK A01 T02710169  RH  057%=      5-min Rain = 0
KWVS 141510Z 04008KT 27/17 A302 RMK A01 T02690169  RH  057%=      5-min Rain = 0
KWVS 141515Z 02008KT 27/17 A302 RMK A01 T02720170  RH  056%=      5-min Rain = 0
KWVS 141520Z 02009KT 27/17 A302 RMK A01 T02720171  RH  057%=      5-min Rain = 0
KWVS 141525Z 00012KT 28/17 A302 RMK A01 T02770171  RH  055%=      5-min Rain = 0
KWVS 141530Z 02011G18KT 28/17 A302 RMK A01 T02780170  RH  054%=      5-min Rain = 0
KWVS 141535Z 03011G16KT 28/17 A302 RMK A01 T02820168  RH  053%=      5-min Rain = 0
KWVS 141540Z 03012KT 28/17 A302 RMK A01 T02840167  RH  051%=      5-min Rain = 0
KWVS 141545Z 01014KT 28/17 A302 RMK A01 T02840165  RH  051%=      5-min Rain = 0
KWVS 141550Z 02014KT 29/17 A302 RMK A01 T02880165  RH  050%=      5-min Rain = 0
KWVS 141555Z 02013KT 29/17 A302 RMK A01 T02870165  RH  050%=      5-min Rain = 0
KWVS 141600Z 03014KT 29/17 A302 RMK A01 T02900166  RH  049%=      5-min Rain = 0
KWVS 141605Z 02014G20KT 29/17 A302 RMK A01 T02870165  RH  050%=      5-min Rain = 0
KWVS 141610Z 01014KT 29/17 A302 RMK A01 T02860165  RH  050%=      5-min Rain = 0
KWVS 141615Z 05013KT 29/17 A302 RMK A01 T02890166  RH  050%=      5-min Rain = 0
KWVS 141620Z 05012G17KT 29/17 A302 RMK A01 T02900165  RH  049%=      5-min Rain = 0
KWVS 141625Z 04010G15KT 29/17 A3019 RMK A01 T02920166  RH  049%=      5-min Rain = 0
KWVS 141630Z 03011G16KT 30/17 A3019 RMK A01 T02990167  RH  047%=      5-min Rain = 0
KWVS 141635Z 02012G18KT 30/17 A3019 RMK A01 T03030166  RH  046%=      5-min Rain = 0
KWVS 141640Z 02011G18KT 30/16 A3018 RMK A01 T03020164  RH  045%=      5-min Rain = 0
KWVS 141645Z 03013KT 31/16 A3018 RMK A01 T03050162  RH  044%=      5-min Rain = 0
KWVS 141650Z 02011G16KT 30/16 A3018 RMK A01 T03030160  RH  044%=      5-min Rain = 0
KWVS 141655Z 02009KT 31/16 A3018 RMK A01 T03070162  RH  044%=      5-min Rain = 0
KWVS 141700Z 04008G14KT 31/16 A3017 RMK A01 T03120161  RH  042%=      5-min Rain = 0
KWVS 141705Z 05009KT 31/16 A3017 RMK A01 T03090159  RH  042%=      5-min Rain = 0
KWVS 141710Z 04007KT 31/16 A3017 RMK A01 T03130156  RH  041%=      5-min Rain = 0
KWVS 141715Z 03009G15KT 32/15 A3016 RMK A01 T03150150  RH  039%=      5-min Rain = 0
KWVS 141720Z 06008KT 31/15 A3016 RMK A01 T03140152  RH  039%=      5-min Rain = 0
KWVS 141725Z 04009G14KT 32/15 A3015 RMK A01 T03170145  RH  037%=      5-min Rain = 0
KWVS 141730Z 05008G15KT 32/15 A3015 RMK A01 T03190146  RH  037%=      5-min Rain = 0
KWVS 141735Z 07008G15KT 32/15 A3015 RMK A01 T03180145  RH  037%=      5-min Rain = 0
KWVS 141740Z 08010KT 33/14 A3014 RMK A01 T03260143  RH  035%=      5-min Rain = 0
KWVS 141745Z 07008G14KT 33/14 A3014 RMK A01 T03250139  RH  034%=      5-min Rain = 0
KWVS 141750Z 06010G18KT 33/13 A3014 RMK A01 T03310133  RH  032%=      5-min Rain = 0
KWVS 141755Z 05010G15KT 33/13 A3014 RMK A01 T03310129  RH  031%=      5-min Rain = 0
KWVS 141800Z 07011KT 33/13 A3014 RMK A01 T03290127  RH  030%=      5-min Rain = 0
KWVS 141805Z 06009G14KT 33/13 A3014 RMK A01 T03310126  RH  030%=      5-min Rain = 0
KWVS 141810Z 08009G14KT 34/13 A3014 RMK A01 T03380129  RH  029%=      5-min Rain = 0
KWVS 141815Z 06011G16KT 34/13 A3013 RMK A01 T03370125  RH  029%=      5-min Rain = 0
KWVS 141820Z 08011G16KT 34/12 A3013 RMK A01 T03390124  RH  028%=      5-min Rain = 0
KWVS 141825Z 07011G18KT 34/13 A3013 RMK A01 T03390132  RH  030%=      5-min Rain = 0
KWVS 141830Z 07011G19KT 34/13 A3013 RMK A01 T03400125  RH  028%=      5-min Rain = 0
KWVS 141835Z 06011G16KT 34/13 A3013 RMK A01 T03430130  RH  029%=      5-min Rain = 0
KWVS 141840Z 06011G20KT 34/13 A3013 RMK A01 T03440128  RH  028%=      5-min Rain = 0
KWVS 141845Z 06012G17KT 34/13 A3013 RMK A01 T03440131  RH  029%=      5-min Rain = 0
KWVS 141850Z 05012G18KT 34/13 A3013 RMK A01 T03410131  RH  029%=      5-min Rain = 0
KWVS 141855Z 05011G17KT 34/13 A3013 RMK A01 T03430134  RH  030%=      5-min Rain = 0
KWVS 141900Z 05010G17KT 35/14 A3013 RMK A01 T03470136  RH  029%=      5-min Rain = 0
KWVS 141905Z 06009G16KT 35/13 A3012 RMK A01 T03510132  RH  028%=      5-min Rain = 0
KWVS 141910Z 07009G15KT 35/13 A3012 RMK A01 T03490133  RH  028%=      5-min Rain = 0
KWVS 141915Z 05012G21KT 35/13 A3012 RMK A01 T03490125  RH  027%=      5-min Rain = 0
KWVS 141920Z 04012G17KT 36/12 A3012 RMK A01 T03570123  RH  025%=      5-min Rain = 0
KWVS 141925Z 03009G15KT 36/13 A3012 RMK A01 T03580125  RH  026%=      5-min Rain = 0
KWVS 141930Z 02014G19KT 36/12 A3011 RMK A01 T03580121  RH  025%=      5-min Rain = 0
KWVS 141935Z 02013KT 36/12 A3011 RMK A01 T03600121  RH  025%=      5-min Rain = 0
KWVS 141940Z 04012G18KT 36/12 A3011 RMK A01 T03550120  RH  025%=      5-min Rain = 0
KWVS 141945Z 05011G19KT 35/12 A3011 RMK A01 T03530117  RH  025%=      5-min Rain = 0
KWVS 141950Z 03015G20KT 36/12 A3011 RMK A01 T03590119  RH  025%=      5-min Rain = 0
KWVS 141955Z 03009G20KT 36/12 A3011 RMK A01 T03550122  RH  025%=      5-min Rain = 0
KWVS 142000Z 35007G12KT 35/13 A3011 RMK A01 T03480126  RH  027%=      5-min Rain = 0
KWVS 142005Z 03009G16KT 36/13 A3011 RMK A01 T03560129  RH  027%=      5-min Rain = 0
KWVS 142010Z 03013G19KT 36/13 A301 RMK A01 T03590125  RH  025%=      5-min Rain = 0
KWVS 142015Z 04010G19KT 35/12 A301 RMK A01 T03530122  RH  026%=      5-min Rain = 0
KWVS 142020Z 05012G18KT 36/13 A301 RMK A01 T03550133  RH  027%=      5-min Rain = 0
KWVS 142025Z 03012G17KT 35/13 A3009 RMK A01 T03510133  RH  028%=      5-min Rain = 0
KWVS 142030Z 04011G16KT 36/14 A3009 RMK A01 T03560136  RH  028%=      5-min Rain = 0
KWVS 142035Z 01011G17KT 35/13 A3009 RMK A01 T03520132  RH  028%=      5-min Rain = 0
KWVS 142040Z 03013G18KT 35/13 A3008 RMK A01 T03540131  RH  027%=      5-min Rain = 0
KWVS 142045Z 05011G18KT 35/13 A3008 RMK A01 T03540131  RH  027%=      5-min Rain = 0
KWVS 142050Z 05012G18KT 35/13 A3008 RMK A01 T03510129  RH  027%=      5-min Rain = 0
KWVS 142055Z 05005G13KT 35/13 A3007 RMK A01 T03510126  RH  027%=      5-min Rain = 0
KWVS 142100Z 02010G15KT 35/12 A3007 RMK A01 T03540123  RH  026%=      5-min Rain = 0
KWVS 142105Z 06010G15KT 36/13 A3006 RMK A01 T03560127  RH  026%=      5-min Rain = 0
KWVS 142110Z 06010KT 35/13 A3006 RMK A01 T03490126  RH  027%=      5-min Rain = 0
KWVS 142115Z 07007G14KT 35/12 A3006 RMK A01 T03460124  RH  027%=      5-min Rain = 0
KWVS 142120Z 04006G11KT 35/13 A3006 RMK A01 T03520127  RH  027%=      5-min Rain = 0
KWVS 142125Z 07010G15KT 35/12 A3006 RMK A01 T03540120  RH  025%=      5-min Rain = 0
KWVS 142130Z 07006G11KT 35/12 A3006 RMK A01 T03510120  RH  026%=      5-min Rain = 0
KWVS 142135Z 08005G10KT 35/12 A3006 RMK A01 T03500122  RH  026%=      5-min Rain = 0
KWVS 142140Z 08008KT 35/13 A3005 RMK A01 T03510125  RH  027%=      5-min Rain = 0
KWVS 142145Z 07004G9KT 35/12 A3005 RMK A01 T03530124  RH  026%=      5-min Rain = 0
KWVS 142150Z 05008G15KT 36/13 A3005 RMK A01 T03550132  RH  027%=      5-min Rain = 0
KWVS 142155Z 06003KT 35/13 A3005 RMK A01 T03530132  RH  028%=      5-min Rain = 0
KWVS 142200Z 10008G15KT 36/13 A3005 RMK A01 T03550131  RH  027%=      5-min Rain = 0
KWVS 142205Z 05009G14KT 36/14 A3005 RMK A01 T03560135  RH  028%=      5-min Rain = 0
KWVS 142210Z 06009G16KT 36/14 A3005 RMK A01 T03570136  RH  028%=      5-min Rain = 0
KWVS 142215Z 08005G12KT 35/13 A3005 RMK A01 T03530133  RH  028%=      5-min Rain = 0
KWVS 142220Z 05010G17KT 35/13 A3005 RMK A01 T03540132  RH  027%=      5-min Rain = 0
KWVS 142225Z 02007KT 36/13 A3005 RMK A01 T03550133  RH  027%=      5-min Rain = 0
KWVS 142230Z 07010G16KT 36/13 A3004 RMK A01 T03560132  RH  027%=      5-min Rain = 0
KWVS 142235Z 07008G13KT 36/13 A3005 RMK A01 T03560134  RH  027%=      5-min Rain = 0
KWVS 142240Z 09009G14KT 35/13 A3005 RMK A01 T03540134  RH  028%=      5-min Rain = 0
KWVS 142245Z 11009KT 36/13 A3005 RMK A01 T03550133  RH  027%=      5-min Rain = 0
KWVS 142250Z 08010G16KT 36/13 A3005 RMK A01 T03550133  RH  027%=      5-min Rain = 0
KWVS 142255Z 07008G14KT 35/13 A3005 RMK A01 T03520132  RH  028%=      5-min Rain = 0
KWVS 142300Z 08008G13KT 35/13 A3005 RMK A01 T03470129  RH  028%=      5-min Rain = 0
KWVS 142305Z 09009KT 35/13 A3005 RMK A01 T03490128  RH  027%=      5-min Rain = 0
KWVS 142310Z 09006G13KT 35/13 A3005 RMK A01 T03520128  RH  027%=      5-min Rain = 0
KWVS 142315Z 08011G17KT 35/13 A3005 RMK A01 T03500126  RH  027%=      5-min Rain = 0
KWVS 142320Z 10009KT 35/13 A3005 RMK A01 T03490126  RH  027%=      5-min Rain = 0
KWVS 142325Z 08007KT 35/13 A3005 RMK A01 T03490125  RH  027%=      5-min Rain = 0
KWVS 142330Z 10006KT 35/13 A3004 RMK A01 T03520126  RH  027%=      5-min Rain = 0
KWVS 142335Z 08009KT 35/13 A3004 RMK A01 T03510127  RH  027%=      5-min Rain = 0
KWVS 142340Z 02008KT 35/13 A3005 RMK A01 T03520128  RH  027%=      5-min Rain = 0
KWVS 142345Z 06008G14KT 35/13 A3005 RMK A01 T03500127  RH  027%=      5-min Rain = 0
KWVS 142350Z 08006G11KT 35/13 A3004 RMK A01 T03480127  RH  027%=      5-min Rain = 0
KWVS 142355Z 07007G12KT 35/13 A3004 RMK A01 T03470127  RH  028%=      5-min Rain = 0
KWVS 150000Z 07008KT 34/13 A3004 RMK A01 T03440128  RH  028%=      5-min Rain = 0
KWVS 150005Z 08009KT 35/13 A3004 RMK A01 T03450127  RH  028%=      5-min Rain = 0
KWVS 150010Z 08006G11KT 34/13 A3004 RMK A01 T03440127  RH  028%=      5-min Rain = 0
KWVS 150015Z 08006KT 35/13 A3004 RMK A01 T03450128  RH  028%=      5-min Rain = 0
KWVS 150020Z 07008KT 34/13 A3004 RMK A01 T03430127  RH  028%=      5-min Rain = 0
KWVS 150025Z 05007KT 34/13 A3004 RMK A01 T03420127  RH  028%=      5-min Rain = 0
KWVS 150030Z 08008G13KT 34/13 A3004 RMK A01 T03420129  RH  029%=      5-min Rain = 0
KWVS 150035Z 08009KT 34/13 A3005 RMK A01 T03380134  RH  030%=      5-min Rain = 0
KWVS 150040Z 08007KT 34/13 A3005 RMK A01 T03360134  RH  031%=      5-min Rain = 0
KWVS 150045Z 08010G15KT 34/13 A3005 RMK A01 T03350134  RH  031%=      5-min Rain = 0
KWVS 150050Z 09009KT 33/14 A3005 RMK A01 T03320135  RH  032%=      5-min Rain = 0
KWVS 150055Z 09010KT 33/14 A3005 RMK A01 T03310135  RH  032%=      5-min Rain = 0
KWVS 150100Z 07008KT 33/14 A3006 RMK A01 T03290137  RH  033%=      5-min Rain = 0
KWVS 150105Z 08009KT 33/14 A3006 RMK A01 T03270138  RH  033%=      5-min Rain = 0
KWVS 150110Z 08010KT 33/14 A3006 RMK A01 T03250138  RH  034%=      5-min Rain = 0
KWVS 150115Z 07009KT 32/14 A3006 RMK A01 T03220138  RH  034%=      5-min Rain = 0
KWVS 150120Z 07009KT 32/14 A3006 RMK A01 T03200138  RH  035%=      5-min Rain = 0
KWVS 150125Z 07009KT 32/14 A3006 RMK A01 T03190138  RH  035%=      5-min Rain = 0
KWVS 150130Z 08008KT 32/14 A3006 RMK A01 T03160138  RH  035%=      5-min Rain = 0
KWVS 150135Z 08008KT 32/14 A3007 RMK A01 T03150138  RH  036%=      5-min Rain = 0
KWVS 150140Z 08007KT 31/14 A3007 RMK A01 T03130138  RH  036%=      5-min Rain = 0
KWVS 150145Z 08006KT 31/14 A3007 RMK A01 T03100139  RH  037%=      5-min Rain = 0
KWVS 150150Z 08005KT 31/14 A3007 RMK A01 T03080139  RH  037%=      5-min Rain = 0
KWVS 150155Z 08008KT 31/14 A3008 RMK A01 T03070140  RH  038%=      5-min Rain = 0
KWVS 150200Z 09008KT 31/14 A3008 RMK A01 T03080141  RH  038%=      5-min Rain = 0
KWVS 150205Z 09006KT 31/14 A3009 RMK A01 T03060143  RH  039%=      5-min Rain = 0
KWVS 150210Z 09007KT 31/15 A3009 RMK A01 T03050146  RH  040%=      5-min Rain = 0
KWVS 150215Z 09008KT 30/15 A3009 RMK A01 T03040149  RH  041%=      5-min Rain = 0
KWVS 150220Z 09008KT 30/15 A301 RMK A01 T03040153  RH  042%=      5-min Rain = 0
KWVS 150225Z 10008KT 30/16 A301 RMK A01 T03030155  RH  043%=      5-min Rain = 0
KWVS 150230Z 10008KT 30/16 A301 RMK A01 T03020156  RH  043%=      5-min Rain = 0
KWVS 150235Z 11008KT 30/16 A301 RMK A01 T03000156  RH  044%=      5-min Rain = 0
KWVS 150240Z 11007KT 30/16 A301 RMK A01 T02980156  RH  044%=      5-min Rain = 0
KWVS 150245Z 11008KT 30/16 A3011 RMK A01 T02970157  RH  045%=      5-min Rain = 0
KWVS 150250Z 10008KT 30/16 A3011 RMK A01 T02960156  RH  045%=      5-min Rain = 0
KWVS 150255Z 10008KT 30/16 A3011 RMK A01 T02950156  RH  045%=      5-min Rain = 0
KWVS 150300Z 10008KT 30/16 A3011 RMK A01 T02950157  RH  045%=      5-min Rain = 0
KWVS 150305Z 10007KT 29/16 A3011 RMK A01 T02940157  RH  046%=      5-min Rain = 0
KWVS 150310Z 10008KT 29/16 A3012 RMK A01 T02940156  RH  045%=      5-min Rain = 0
KWVS 150315Z 10008KT 29/16 A3012 RMK A01 T02940156  RH  045%=      5-min Rain = 0
KWVS 150320Z 10008KT 29/16 A3012 RMK A01 T02920156  RH  046%=      5-min Rain = 0
KWVS 150325Z 10007KT 29/16 A3012 RMK A01 T02910156  RH  046%=      5-min Rain = 0
KWVS 150330Z 10008KT 29/16 A3012 RMK A01 T02900156  RH  046%=      5-min Rain = 0
KWVS 150335Z 10007KT 29/16 A3012 RMK A01 T02890157  RH  047%=      5-min Rain = 0
KWVS 150340Z 10008KT 29/16 A3012 RMK A01 T02880157  RH  047%=      5-min Rain = 0
KWVS 150345Z 09006KT 29/16 A3013 RMK A01 T02860157  RH  048%=      5-min Rain = 0
KWVS 150350Z 10006KT 28/16 A3013 RMK A01 T02830158  RH  049%=      5-min Rain = 0
KWVS 150355Z 10006KT 28/16 A3013 RMK A01 T02830158  RH  049%=      5-min Rain = 0
KWVS 150400Z 10007KT 28/16 A3013 RMK A01 T02830159  RH  049%=      5-min Rain = 0
KWVS 150405Z 11007KT 28/16 A3013 RMK A01 T02820159  RH  049%=      5-min Rain = 0
KWVS 150410Z 10007KT 28/16 A3013 RMK A01 T02810159  RH  050%=      5-min Rain = 0
KWVS 150415Z 10007KT 28/16 A3013 RMK A01 T02790159  RH  050%=      5-min Rain = 0
KWVS 150420Z 09007KT 28/16 A3013 RMK A01 T02790159  RH  051%=      5-min Rain = 0
KWVS 150425Z 08006KT 28/16 A3013 RMK A01 T02780160  RH  051%=      5-min Rain = 0
KWVS 150430Z 07006KT 27/16 A3014 RMK A01 T02740159  RH  052%=      5-min Rain = 0
KWVS 150435Z 08005KT 27/16 A3014 RMK A01 T02710158  RH  053%=      5-min Rain = 0
KWVS 150440Z 08004KT 27/16 A3014 RMK A01 T02680158  RH  053%=      5-min Rain = 0
KWVS 150445Z 08004KT 27/16 A3014 RMK A01 T02670159  RH  054%=      5-min Rain = 0
KWVS 150450Z 08005KT 27/16 A3014 RMK A01 T02670159  RH  054%=      5-min Rain = 0
KWVS 150455Z 09006KT 27/16 A3014 RMK A01 T02680160  RH  054%=      5-min Rain = 0

Page generated in 0.0092 seconds.